sensor_id;sensor_type;location;lat;lon;timestamp;P1;durP1;ratioP1;P2;durP2;ratioP2
8333;SDS011;4204;43.004;23.052;2023-03-02T00:01:32;8.80;;;6.03;;
8333;SDS011;4204;43.004;23.052;2023-03-02T00:04:01;8.07;;;5.67;;
8333;SDS011;4204;43.004;23.052;2023-03-02T00:06:33;9.73;;;5.67;;
8333;SDS011;4204;43.004;23.052;2023-03-02T00:09:02;8.37;;;5.43;;
8333;SDS011;4204;43.004;23.052;2023-03-02T00:11:31;8.93;;;6.00;;
8333;SDS011;4204;43.004;23.052;2023-03-02T00:14:01;7.60;;;5.43;;
8333;SDS011;4204;43.004;23.052;2023-03-02T00:16:29;7.13;;;5.10;;
8333;SDS011;4204;43.004;23.052;2023-03-02T00:18:57;6.47;;;4.83;;
8333;SDS011;4204;43.004;23.052;2023-03-02T00:21:24;8.47;;;5.43;;
8333;SDS011;4204;43.004;23.052;2023-03-02T00:23:53;7.30;;;5.10;;
8333;SDS011;4204;43.004;23.052;2023-03-02T00:26:21;7.73;;;5.07;;
8333;SDS011;4204;43.004;23.052;2023-03-02T00:28:49;7.40;;;4.90;;
8333;SDS011;4204;43.004;23.052;2023-03-02T00:31:17;8.67;;;5.63;;
8333;SDS011;4204;43.004;23.052;2023-03-02T00:33:45;7.67;;;5.33;;
8333;SDS011;4204;43.004;23.052;2023-03-02T00:36:16;7.93;;;5.23;;
8333;SDS011;4204;43.004;23.052;2023-03-02T00:38:45;7.20;;;4.70;;
8333;SDS011;4204;43.004;23.052;2023-03-02T00:41:15;8.83;;;5.20;;
8333;SDS011;4204;43.004;23.052;2023-03-02T00:43:42;12.60;;;6.07;;
8333;SDS011;4204;43.004;23.052;2023-03-02T00:46:10;10.33;;;5.80;;
8333;SDS011;4204;43.004;23.052;2023-03-02T00:48:39;7.50;;;5.03;;
8333;SDS011;4204;43.004;23.052;2023-03-02T00:51:07;8.87;;;5.40;;
8333;SDS011;4204;43.004;23.052;2023-03-02T00:53:35;9.50;;;5.70;;
8333;SDS011;4204;43.004;23.052;2023-03-02T00:56:05;8.47;;;5.53;;
8333;SDS011;4204;43.004;23.052;2023-03-02T00:58:38;9.60;;;5.90;;
8333;SDS011;4204;43.004;23.052;2023-03-02T01:01:08;9.80;;;6.10;;
8333;SDS011;4204;43.004;23.052;2023-03-02T01:03:42;9.90;;;5.60;;
8333;SDS011;4204;43.004;23.052;2023-03-02T01:06:13;8.70;;;5.57;;
8333;SDS011;4204;43.004;23.052;2023-03-02T01:08:41;12.30;;;5.93;;
8333;SDS011;4204;43.004;23.052;2023-03-02T01:11:13;9.30;;;6.53;;
8333;SDS011;4204;43.004;23.052;2023-03-02T01:13:43;12.97;;;6.20;;
8333;SDS011;4204;43.004;23.052;2023-03-02T01:16:12;23.07;;;11.53;;
8333;SDS011;4204;43.004;23.052;2023-03-02T01:18:39;14.50;;;8.63;;
8333;SDS011;4204;43.004;23.052;2023-03-02T01:21:08;10.37;;;6.30;;
8333;SDS011;4204;43.004;23.052;2023-03-02T01:23:37;11.53;;;6.80;;
8333;SDS011;4204;43.004;23.052;2023-03-02T01:26:05;8.60;;;5.50;;
8333;SDS011;4204;43.004;23.052;2023-03-02T01:28:33;13.33;;;6.57;;
8333;SDS011;4204;43.004;23.052;2023-03-02T01:31:02;12.50;;;6.20;;
8333;SDS011;4204;43.004;23.052;2023-03-02T01:33:30;10.67;;;5.87;;
8333;SDS011;4204;43.004;23.052;2023-03-02T01:35:58;13.50;;;6.40;;
8333;SDS011;4204;43.004;23.052;2023-03-02T01:38:26;11.33;;;5.83;;
8333;SDS011;4204;43.004;23.052;2023-03-02T01:40:54;8.20;;;4.93;;
8333;SDS011;4204;43.004;23.052;2023-03-02T01:43:22;7.43;;;5.00;;
8333;SDS011;4204;43.004;23.052;2023-03-02T01:45:51;6.70;;;4.07;;
8333;SDS011;4204;43.004;23.052;2023-03-02T01:48:38;5.10;;;4.10;;
8333;SDS011;4204;43.004;23.052;2023-03-02T01:51:11;8.20;;;4.83;;
8333;SDS011;4204;43.004;23.052;2023-03-02T01:53:43;7.20;;;4.70;;
8333;SDS011;4204;43.004;23.052;2023-03-02T01:56:16;6.60;;;4.40;;
8333;SDS011;4204;43.004;23.052;2023-03-02T01:58:46;6.00;;;4.20;;
8333;SDS011;4204;43.004;23.052;2023-03-02T02:01:17;5.17;;;4.10;;
8333;SDS011;4204;43.004;23.052;2023-03-02T02:03:48;6.90;;;4.13;;
8333;SDS011;4204;43.004;23.052;2023-03-02T02:06:18;5.90;;;4.30;;
8333;SDS011;4204;43.004;23.052;2023-03-02T02:08:50;5.53;;;3.73;;
8333;SDS011;4204;43.004;23.052;2023-03-02T02:11:20;5.47;;;4.07;;
8333;SDS011;4204;43.004;23.052;2023-03-02T02:13:50;7.13;;;3.90;;
8333;SDS011;4204;43.004;23.052;2023-03-02T02:16:21;4.53;;;3.27;;
8333;SDS011;4204;43.004;23.052;2023-03-02T02:18:51;5.27;;;3.70;;
8333;SDS011;4204;43.004;23.052;2023-03-02T02:21:19;4.83;;;3.57;;
8333;SDS011;4204;43.004;23.052;2023-03-02T02:23:48;4.43;;;3.47;;
8333;SDS011;4204;43.004;23.052;2023-03-02T02:26:32;4.17;;;3.20;;
8333;SDS011;4204;43.004;23.052;2023-03-02T02:29:03;5.57;;;3.37;;
8333;SDS011;4204;43.004;23.052;2023-03-02T02:31:38;5.37;;;3.17;;
8333;SDS011;4204;43.004;23.052;2023-03-02T02:34:15;5.17;;;3.30;;
8333;SDS011;4204;43.004;23.052;2023-03-02T02:36:49;4.23;;;3.50;;
8333;SDS011;4204;43.004;23.052;2023-03-02T02:39:22;5.43;;;3.80;;
8333;SDS011;4204;43.004;23.052;2023-03-02T02:41:56;4.43;;;3.50;;
8333;SDS011;4204;43.004;23.052;2023-03-02T02:44:27;3.93;;;3.03;;
8333;SDS011;4204;43.004;23.052;2023-03-02T02:46:57;3.27;;;2.67;;
8333;SDS011;4204;43.004;23.052;2023-03-02T02:49:26;4.20;;;2.77;;
8333;SDS011;4204;43.004;23.052;2023-03-02T02:51:57;4.90;;;2.90;;
8333;SDS011;4204;43.004;23.052;2023-03-02T02:54:25;9.50;;;3.17;;
8333;SDS011;4204;43.004;23.052;2023-03-02T02:56:56;4.50;;;3.10;;
8333;SDS011;4204;43.004;23.052;2023-03-02T02:59:26;3.87;;;2.80;;
8333;SDS011;4204;43.004;23.052;2023-03-02T03:01:59;4.23;;;3.20;;
8333;SDS011;4204;43.004;23.052;2023-03-02T03:04:28;5.33;;;3.17;;
8333;SDS011;4204;43.004;23.052;2023-03-02T03:06:59;4.17;;;2.93;;
8333;SDS011;4204;43.004;23.052;2023-03-02T03:09:28;5.43;;;3.53;;
8333;SDS011;4204;43.004;23.052;2023-03-02T03:11:59;4.67;;;3.23;;
8333;SDS011;4204;43.004;23.052;2023-03-02T03:14:33;3.97;;;3.10;;
8333;SDS011;4204;43.004;23.052;2023-03-02T03:17:03;4.70;;;2.97;;
8333;SDS011;4204;43.004;23.052;2023-03-02T03:19:38;4.07;;;2.87;;
8333;SDS011;4204;43.004;23.052;2023-03-02T03:22:07;4.80;;;3.10;;
8333;SDS011;4204;43.004;23.052;2023-03-02T03:24:38;4.63;;;2.90;;
8333;SDS011;4204;43.004;23.052;2023-03-02T03:27:09;4.33;;;2.93;;
8333;SDS011;4204;43.004;23.052;2023-03-02T03:29:41;4.00;;;3.00;;
8333;SDS011;4204;43.004;23.052;2023-03-02T03:32:12;3.80;;;2.90;;
8333;SDS011;4204;43.004;23.052;2023-03-02T03:34:41;3.60;;;3.13;;
8333;SDS011;4204;43.004;23.052;2023-03-02T03:37:16;3.67;;;2.53;;
8333;SDS011;4204;43.004;23.052;2023-03-02T03:39:46;4.37;;;2.90;;
8333;SDS011;4204;43.004;23.052;2023-03-02T03:42:16;3.90;;;3.10;;
8333;SDS011;4204;43.004;23.052;2023-03-02T03:44:45;5.77;;;2.70;;
8333;SDS011;4204;43.004;23.052;2023-03-02T03:47:13;3.63;;;2.57;;
8333;SDS011;4204;43.004;23.052;2023-03-02T03:49:41;4.00;;;2.57;;
8333;SDS011;4204;43.004;23.052;2023-03-02T03:52:09;4.93;;;2.53;;
8333;SDS011;4204;43.004;23.052;2023-03-02T03:54:36;3.67;;;2.50;;
8333;SDS011;4204;43.004;23.052;2023-03-02T03:57:04;4.30;;;3.03;;
8333;SDS011;4204;43.004;23.052;2023-03-02T03:59:33;6.47;;;2.97;;
8333;SDS011;4204;43.004;23.052;2023-03-02T04:02:02;4.83;;;2.67;;
8333;SDS011;4204;43.004;23.052;2023-03-02T04:04:35;5.00;;;2.83;;
8333;SDS011;4204;43.004;23.052;2023-03-02T04:07:07;4.57;;;2.97;;
8333;SDS011;4204;43.004;23.052;2023-03-02T04:09:36;4.50;;;2.67;;
8333;SDS011;4204;43.004;23.052;2023-03-02T04:12:06;3.67;;;2.27;;
8333;SDS011;4204;43.004;23.052;2023-03-02T04:14:37;3.90;;;2.60;;
8333;SDS011;4204;43.004;23.052;2023-03-02T04:17:05;2.80;;;2.20;;
8333;SDS011;4204;43.004;23.052;2023-03-02T04:19:36;3.77;;;2.57;;
8333;SDS011;4204;43.004;23.052;2023-03-02T04:22:04;4.20;;;2.67;;
8333;SDS011;4204;43.004;23.052;2023-03-02T04:24:32;3.03;;;2.47;;
8333;SDS011;4204;43.004;23.052;2023-03-02T04:27:02;5.50;;;2.13;;
8333;SDS011;4204;43.004;23.052;2023-03-02T04:29:32;3.73;;;2.23;;
8333;SDS011;4204;43.004;23.052;2023-03-02T04:32:03;4.27;;;2.90;;
8333;SDS011;4204;43.004;23.052;2023-03-02T04:34:33;3.83;;;2.43;;
8333;SDS011;4204;43.004;23.052;2023-03-02T04:37:01;4.20;;;2.77;;
8333;SDS011;4204;43.004;23.052;2023-03-02T04:39:29;4.83;;;2.90;;
8333;SDS011;4204;43.004;23.052;2023-03-02T04:41:56;4.87;;;2.53;;
8333;SDS011;4204;43.004;23.052;2023-03-02T04:44:24;3.00;;;2.20;;
8333;SDS011;4204;43.004;23.052;2023-03-02T04:46:52;3.53;;;2.43;;
8333;SDS011;4204;43.004;23.052;2023-03-02T04:49:21;4.23;;;2.50;;
8333;SDS011;4204;43.004;23.052;2023-03-02T04:51:50;5.33;;;2.60;;
8333;SDS011;4204;43.004;23.052;2023-03-02T04:54:18;3.97;;;2.20;;
8333;SDS011;4204;43.004;23.052;2023-03-02T04:56:48;4.60;;;2.27;;
8333;SDS011;4204;43.004;23.052;2023-03-02T04:59:16;3.50;;;2.50;;
8333;SDS011;4204;43.004;23.052;2023-03-02T05:01:47;3.53;;;2.33;;
8333;SDS011;4204;43.004;23.052;2023-03-02T05:04:15;6.23;;;2.53;;
8333;SDS011;4204;43.004;23.052;2023-03-02T05:06:44;5.93;;;3.20;;
8333;SDS011;4204;43.004;23.052;2023-03-02T05:09:12;4.47;;;2.67;;
8333;SDS011;4204;43.004;23.052;2023-03-02T05:11:40;3.63;;;2.50;;
8333;SDS011;4204;43.004;23.052;2023-03-02T05:14:09;4.67;;;2.70;;
8333;SDS011;4204;43.004;23.052;2023-03-02T05:16:39;3.13;;;2.10;;
8333;SDS011;4204;43.004;23.052;2023-03-02T05:19:08;3.67;;;2.30;;
8333;SDS011;4204;43.004;23.052;2023-03-02T05:21:38;5.33;;;2.47;;
8333;SDS011;4204;43.004;23.052;2023-03-02T05:24:07;4.20;;;2.50;;
8333;SDS011;4204;43.004;23.052;2023-03-02T05:26:35;7.30;;;3.17;;
8333;SDS011;4204;43.004;23.052;2023-03-02T05:29:03;5.40;;;2.77;;
8333;SDS011;4204;43.004;23.052;2023-03-02T05:31:33;4.87;;;3.23;;
8333;SDS011;4204;43.004;23.052;2023-03-02T05:34:04;4.00;;;2.43;;
8333;SDS011;4204;43.004;23.052;2023-03-02T05:36:33;4.87;;;2.50;;
8333;SDS011;4204;43.004;23.052;2023-03-02T05:39:01;3.77;;;2.40;;
8333;SDS011;4204;43.004;23.052;2023-03-02T05:41:31;5.37;;;2.90;;
8333;SDS011;4204;43.004;23.052;2023-03-02T05:43:59;5.00;;;2.30;;
8333;SDS011;4204;43.004;23.052;2023-03-02T05:46:27;2.83;;;2.30;;
8333;SDS011;4204;43.004;23.052;2023-03-02T05:48:55;4.33;;;2.27;;
8333;SDS011;4204;43.004;23.052;2023-03-02T05:51:22;4.30;;;2.27;;
8333;SDS011;4204;43.004;23.052;2023-03-02T05:53:50;5.60;;;2.80;;
8333;SDS011;4204;43.004;23.052;2023-03-02T05:56:18;5.73;;;3.43;;
8333;SDS011;4204;43.004;23.052;2023-03-02T05:58:48;7.80;;;3.43;;
8333;SDS011;4204;43.004;23.052;2023-03-02T06:01:16;5.80;;;2.73;;
8333;SDS011;4204;43.004;23.052;2023-03-02T06:03:44;3.97;;;2.43;;
8333;SDS011;4204;43.004;23.052;2023-03-02T06:06:12;5.50;;;2.67;;
8333;SDS011;4204;43.004;23.052;2023-03-02T06:08:39;4.77;;;3.07;;
8333;SDS011;4204;43.004;23.052;2023-03-02T06:11:08;5.40;;;3.30;;
8333;SDS011;4204;43.004;23.052;2023-03-02T06:13:36;4.27;;;3.00;;
8333;SDS011;4204;43.004;23.052;2023-03-02T06:16:06;5.50;;;3.03;;
8333;SDS011;4204;43.004;23.052;2023-03-02T06:18:34;4.20;;;2.43;;
8333;SDS011;4204;43.004;23.052;2023-03-02T06:21:03;6.87;;;2.87;;
8333;SDS011;4204;43.004;23.052;2023-03-02T06:23:31;4.20;;;2.03;;
8333;SDS011;4204;43.004;23.052;2023-03-02T06:25:59;3.23;;;2.20;;
8333;SDS011;4204;43.004;23.052;2023-03-02T06:28:26;3.30;;;2.20;;
8333;SDS011;4204;43.004;23.052;2023-03-02T06:30:54;5.50;;;2.73;;
8333;SDS011;4204;43.004;23.052;2023-03-02T06:33:25;4.37;;;2.13;;
8333;SDS011;4204;43.004;23.052;2023-03-02T06:35:53;3.40;;;2.20;;
8333;SDS011;4204;43.004;23.052;2023-03-02T06:38:21;3.97;;;2.50;;
8333;SDS011;4204;43.004;23.052;2023-03-02T06:40:49;4.13;;;2.43;;
8333;SDS011;4204;43.004;23.052;2023-03-02T06:43:17;3.73;;;2.10;;
8333;SDS011;4204;43.004;23.052;2023-03-02T06:45:44;2.57;;;1.80;;
8333;SDS011;4204;43.004;23.052;2023-03-02T06:48:12;2.97;;;2.00;;
8333;SDS011;4204;43.004;23.052;2023-03-02T06:50:42;2.77;;;1.97;;
8333;SDS011;4204;43.004;23.052;2023-03-02T06:53:10;4.83;;;2.20;;
8333;SDS011;4204;43.004;23.052;2023-03-02T06:55:37;3.60;;;2.17;;
8333;SDS011;4204;43.004;23.052;2023-03-02T06:58:05;6.43;;;2.80;;
8333;SDS011;4204;43.004;23.052;2023-03-02T07:00:38;6.40;;;2.40;;
8333;SDS011;4204;43.004;23.052;2023-03-02T07:03:05;2.60;;;2.17;;
8333;SDS011;4204;43.004;23.052;2023-03-02T07:05:33;2.97;;;2.07;;
8333;SDS011;4204;43.004;23.052;2023-03-02T07:08:03;4.07;;;2.43;;
8333;SDS011;4204;43.004;23.052;2023-03-02T07:10:31;4.73;;;2.57;;
8333;SDS011;4204;43.004;23.052;2023-03-02T07:12:59;5.07;;;2.60;;
8333;SDS011;4204;43.004;23.052;2023-03-02T07:15:27;4.00;;;2.60;;
8333;SDS011;4204;43.004;23.052;2023-03-02T07:17:54;6.53;;;3.03;;
8333;SDS011;4204;43.004;23.052;2023-03-02T07:20:22;5.77;;;3.00;;
8333;SDS011;4204;43.004;23.052;2023-03-02T07:22:50;9.00;;;2.83;;
8333;SDS011;4204;43.004;23.052;2023-03-02T07:25:19;3.67;;;2.80;;
8333;SDS011;4204;43.004;23.052;2023-03-02T07:27:47;3.77;;;2.60;;
8333;SDS011;4204;43.004;23.052;2023-03-02T07:30:14;5.67;;;2.67;;
8333;SDS011;4204;43.004;23.052;2023-03-02T07:32:46;3.67;;;2.63;;
8333;SDS011;4204;43.004;23.052;2023-03-02T07:35:13;4.17;;;2.30;;
8333;SDS011;4204;43.004;23.052;2023-03-02T07:37:42;5.43;;;2.87;;
8333;SDS011;4204;43.004;23.052;2023-03-02T07:40:10;4.57;;;2.50;;
8333;SDS011;4204;43.004;23.052;2023-03-02T07:42:40;5.13;;;2.57;;
8333;SDS011;4204;43.004;23.052;2023-03-02T07:45:08;4.00;;;2.77;;
8333;SDS011;4204;43.004;23.052;2023-03-02T07:47:37;6.13;;;2.67;;
8333;SDS011;4204;43.004;23.052;2023-03-02T07:50:05;4.60;;;2.60;;
8333;SDS011;4204;43.004;23.052;2023-03-02T07:52:34;3.27;;;2.03;;
8333;SDS011;4204;43.004;23.052;2023-03-02T07:55:01;3.67;;;2.60;;
8333;SDS011;4204;43.004;23.052;2023-03-02T07:57:29;3.60;;;2.20;;
8333;SDS011;4204;43.004;23.052;2023-03-02T07:59:58;4.13;;;2.60;;
8333;SDS011;4204;43.004;23.052;2023-03-02T08:02:26;4.87;;;2.17;;
8333;SDS011;4204;43.004;23.052;2023-03-02T08:04:54;4.80;;;2.70;;
8333;SDS011;4204;43.004;23.052;2023-03-02T08:07:21;4.03;;;2.03;;
8333;SDS011;4204;43.004;23.052;2023-03-02T08:09:49;3.30;;;2.33;;
8333;SDS011;4204;43.004;23.052;2023-03-02T08:12:17;5.17;;;2.70;;
8333;SDS011;4204;43.004;23.052;2023-03-02T08:14:46;2.97;;;2.50;;
8333;SDS011;4204;43.004;23.052;2023-03-02T08:17:15;4.70;;;2.80;;
8333;SDS011;4204;43.004;23.052;2023-03-02T08:19:43;4.97;;;2.60;;
8333;SDS011;4204;43.004;23.052;2023-03-02T08:22:11;3.20;;;2.40;;
8333;SDS011;4204;43.004;23.052;2023-03-02T08:24:39;4.00;;;2.77;;
8333;SDS011;4204;43.004;23.052;2023-03-02T08:27:08;4.70;;;2.73;;
8333;SDS011;4204;43.004;23.052;2023-03-02T08:29:39;4.87;;;3.17;;
8333;SDS011;4204;43.004;23.052;2023-03-02T08:32:07;4.43;;;2.60;;
8333;SDS011;4204;43.004;23.052;2023-03-02T08:34:36;3.83;;;2.60;;
8333;SDS011;4204;43.004;23.052;2023-03-02T08:37:04;3.63;;;2.57;;
8333;SDS011;4204;43.004;23.052;2023-03-02T08:39:32;6.10;;;2.87;;
8333;SDS011;4204;43.004;23.052;2023-03-02T08:41:59;6.57;;;2.80;;
8333;SDS011;4204;43.004;23.052;2023-03-02T08:44:27;9.37;;;2.70;;
8333;SDS011;4204;43.004;23.052;2023-03-02T08:46:55;5.43;;;3.37;;
8333;SDS011;4204;43.004;23.052;2023-03-02T08:49:23;4.20;;;2.70;;
8333;SDS011;4204;43.004;23.052;2023-03-02T08:51:52;5.87;;;3.10;;
8333;SDS011;4204;43.004;23.052;2023-03-02T08:54:21;5.40;;;3.13;;
8333;SDS011;4204;43.004;23.052;2023-03-02T08:56:49;5.40;;;3.20;;
8333;SDS011;4204;43.004;23.052;2023-03-02T08:59:16;5.43;;;3.03;;
8333;SDS011;4204;43.004;23.052;2023-03-02T09:01:46;5.30;;;3.00;;
8333;SDS011;4204;43.004;23.052;2023-03-02T09:04:13;3.27;;;2.50;;
8333;SDS011;4204;43.004;23.052;2023-03-02T09:06:42;3.07;;;2.40;;
8333;SDS011;4204;43.004;23.052;2023-03-02T09:09:12;5.03;;;2.73;;
8333;SDS011;4204;43.004;23.052;2023-03-02T09:11:40;4.90;;;3.00;;
8333;SDS011;4204;43.004;23.052;2023-03-02T09:14:08;3.43;;;2.27;;
8333;SDS011;4204;43.004;23.052;2023-03-02T09:16:36;3.57;;;2.80;;
8333;SDS011;4204;43.004;23.052;2023-03-02T09:19:04;4.53;;;2.50;;
8333;SDS011;4204;43.004;23.052;2023-03-02T09:21:32;5.93;;;2.60;;
8333;SDS011;4204;43.004;23.052;2023-03-02T09:23:59;5.90;;;3.03;;
8333;SDS011;4204;43.004;23.052;2023-03-02T09:26:29;4.50;;;2.53;;
8333;SDS011;4204;43.004;23.052;2023-03-02T09:28:56;4.60;;;2.20;;
8333;SDS011;4204;43.004;23.052;2023-03-02T09:31:24;3.70;;;2.47;;
8333;SDS011;4204;43.004;23.052;2023-03-02T09:33:52;4.30;;;2.50;;
8333;SDS011;4204;43.004;23.052;2023-03-02T09:36:22;5.13;;;2.20;;
8333;SDS011;4204;43.004;23.052;2023-03-02T09:38:51;3.37;;;2.57;;
8333;SDS011;4204;43.004;23.052;2023-03-02T09:44:36;5.23;;;2.80;;
8333;SDS011;4204;43.004;23.052;2023-03-02T09:47:11;5.10;;;2.53;;
8333;SDS011;4204;43.004;23.052;2023-03-02T09:49:52;4.00;;;2.60;;
8333;SDS011;4204;43.004;23.052;2023-03-02T09:52:28;3.63;;;2.47;;
8333;SDS011;4204;43.004;23.052;2023-03-02T09:54:59;2.83;;;2.20;;
8333;SDS011;4204;43.004;23.052;2023-03-02T09:57:36;3.87;;;2.50;;
8333;SDS011;4204;43.004;23.052;2023-03-02T10:00:06;3.13;;;2.23;;
8333;SDS011;4204;43.004;23.052;2023-03-02T10:02:41;3.07;;;2.50;;
8333;SDS011;4204;43.004;23.052;2023-03-02T10:05:15;3.63;;;2.53;;
8333;SDS011;4204;43.004;23.052;2023-03-02T10:07:45;3.47;;;2.40;;
8333;SDS011;4204;43.004;23.052;2023-03-02T10:10:24;3.90;;;2.50;;
8333;SDS011;4204;43.004;23.052;2023-03-02T10:12:59;4.07;;;2.77;;
8333;SDS011;4204;43.004;23.052;2023-03-02T10:15:44;5.20;;;2.80;;
8333;SDS011;4204;43.004;23.052;2023-03-02T10:18:19;6.10;;;2.87;;
8333;SDS011;4204;43.004;23.052;2023-03-02T10:20:51;3.77;;;2.50;;
8333;SDS011;4204;43.004;23.052;2023-03-02T10:23:29;4.20;;;3.00;;
8333;SDS011;4204;43.004;23.052;2023-03-02T10:26:04;5.07;;;2.90;;
8333;SDS011;4204;43.004;23.052;2023-03-02T10:28:55;5.37;;;3.03;;
8333;SDS011;4204;43.004;23.052;2023-03-02T10:31:27;4.90;;;3.00;;
8333;SDS011;4204;43.004;23.052;2023-03-02T10:33:56;5.80;;;2.80;;
8333;SDS011;4204;43.004;23.052;2023-03-02T10:36:26;4.20;;;2.40;;
8333;SDS011;4204;43.004;23.052;2023-03-02T10:38:55;6.00;;;3.00;;
8333;SDS011;4204;43.004;23.052;2023-03-02T10:41:26;4.23;;;2.40;;
8333;SDS011;4204;43.004;23.052;2023-03-02T10:44:00;4.33;;;2.70;;
8333;SDS011;4204;43.004;23.052;2023-03-02T10:46:40;3.73;;;2.20;;
8333;SDS011;4204;43.004;23.052;2023-03-02T10:52:05;3.97;;;2.57;;
8333;SDS011;4204;43.004;23.052;2023-03-02T10:54:43;4.10;;;2.67;;
8333;SDS011;4204;43.004;23.052;2023-03-02T10:57:22;5.47;;;3.07;;
8333;SDS011;4204;43.004;23.052;2023-03-02T11:00:02;5.13;;;2.80;;
8333;SDS011;4204;43.004;23.052;2023-03-02T11:02:47;4.30;;;2.80;;
8333;SDS011;4204;43.004;23.052;2023-03-02T11:05:21;5.07;;;2.90;;
8333;SDS011;4204;43.004;23.052;2023-03-02T11:07:53;5.00;;;2.77;;
8333;SDS011;4204;43.004;23.052;2023-03-02T11:10:23;4.07;;;2.73;;
8333;SDS011;4204;43.004;23.052;2023-03-02T11:12:52;3.77;;;2.97;;
8333;SDS011;4204;43.004;23.052;2023-03-02T11:15:26;6.00;;;3.53;;
8333;SDS011;4204;43.004;23.052;2023-03-02T11:18:04;3.53;;;2.10;;
8333;SDS011;4204;43.004;23.052;2023-03-02T11:20:34;3.97;;;3.00;;
8333;SDS011;4204;43.004;23.052;2023-03-02T11:23:12;3.70;;;2.40;;
8333;SDS011;4204;43.004;23.052;2023-03-02T11:25:45;4.03;;;2.77;;
8333;SDS011;4204;43.004;23.052;2023-03-02T11:28:31;3.80;;;2.70;;
8333;SDS011;4204;43.004;23.052;2023-03-02T11:31:05;3.50;;;2.37;;
8333;SDS011;4204;43.004;23.052;2023-03-02T11:33:41;4.07;;;2.77;;
8333;SDS011;4204;43.004;23.052;2023-03-02T11:36:16;4.73;;;3.00;;
8333;SDS011;4204;43.004;23.052;2023-03-02T11:38:47;4.60;;;3.00;;
8333;SDS011;4204;43.004;23.052;2023-03-02T11:41:23;4.30;;;2.87;;
8333;SDS011;4204;43.004;23.052;2023-03-02T11:43:54;6.00;;;3.17;;
8333;SDS011;4204;43.004;23.052;2023-03-02T11:46:27;6.77;;;3.60;;
8333;SDS011;4204;43.004;23.052;2023-03-02T11:48:57;4.03;;;2.90;;
8333;SDS011;4204;43.004;23.052;2023-03-02T11:51:32;4.50;;;2.90;;
8333;SDS011;4204;43.004;23.052;2023-03-02T11:54:02;5.73;;;3.10;;
8333;SDS011;4204;43.004;23.052;2023-03-02T11:56:33;4.07;;;2.90;;
8333;SDS011;4204;43.004;23.052;2023-03-02T11:59:05;5.70;;;3.50;;
8333;SDS011;4204;43.004;23.052;2023-03-02T12:01:38;4.87;;;3.40;;
8333;SDS011;4204;43.004;23.052;2023-03-02T12:04:09;5.07;;;3.20;;
8333;SDS011;4204;43.004;23.052;2023-03-02T12:06:52;6.03;;;3.23;;
8333;SDS011;4204;43.004;23.052;2023-03-02T12:09:27;5.37;;;3.37;;
8333;SDS011;4204;43.004;23.052;2023-03-02T12:11:59;4.00;;;3.07;;
8333;SDS011;4204;43.004;23.052;2023-03-02T12:14:52;4.40;;;3.40;;
8333;SDS011;4204;43.004;23.052;2023-03-02T12:17:29;4.80;;;2.83;;
8333;SDS011;4204;43.004;23.052;2023-03-02T12:20:22;4.50;;;3.23;;
8333;SDS011;4204;43.004;23.052;2023-03-02T12:22:52;3.73;;;2.83;;
8333;SDS011;4204;43.004;23.052;2023-03-02T12:25:24;4.77;;;2.80;;
8333;SDS011;4204;43.004;23.052;2023-03-02T12:28:03;3.93;;;2.90;;
8333;SDS011;4204;43.004;23.052;2023-03-02T12:30:31;4.93;;;3.40;;
8333;SDS011;4204;43.004;23.052;2023-03-02T12:33:01;4.33;;;3.10;;
8333;SDS011;4204;43.004;23.052;2023-03-02T12:35:32;5.03;;;3.33;;
8333;SDS011;4204;43.004;23.052;2023-03-02T12:38:02;5.87;;;3.07;;
8333;SDS011;4204;43.004;23.052;2023-03-02T12:40:37;7.80;;;4.10;;
8333;SDS011;4204;43.004;23.052;2023-03-02T12:43:15;7.37;;;4.10;;
8333;SDS011;4204;43.004;23.052;2023-03-02T12:45:55;5.27;;;3.50;;
8333;SDS011;4204;43.004;23.052;2023-03-02T12:48:49;5.90;;;3.00;;
8333;SDS011;4204;43.004;23.052;2023-03-02T12:51:25;3.90;;;2.80;;
8333;SDS011;4204;43.004;23.052;2023-03-02T12:54:03;4.03;;;2.53;;
8333;SDS011;4204;43.004;23.052;2023-03-02T12:56:33;3.40;;;2.20;;
8333;SDS011;4204;43.004;23.052;2023-03-02T12:59:00;3.80;;;2.40;;
8333;SDS011;4204;43.004;23.052;2023-03-02T13:01:29;3.10;;;2.30;;
8333;SDS011;4204;43.004;23.052;2023-03-02T13:03:59;2.97;;;2.20;;
8333;SDS011;4204;43.004;23.052;2023-03-02T13:06:29;4.07;;;2.20;;
8333;SDS011;4204;43.004;23.052;2023-03-02T13:08:58;3.43;;;2.33;;
8333;SDS011;4204;43.004;23.052;2023-03-02T13:11:27;2.80;;;2.37;;
8333;SDS011;4204;43.004;23.052;2023-03-02T13:13:59;3.47;;;2.60;;
8333;SDS011;4204;43.004;23.052;2023-03-02T13:16:29;5.17;;;2.73;;
8333;SDS011;4204;43.004;23.052;2023-03-02T13:19:01;3.37;;;2.53;;
8333;SDS011;4204;43.004;23.052;2023-03-02T13:21:42;5.50;;;3.30;;
8333;SDS011;4204;43.004;23.052;2023-03-02T13:24:28;3.57;;;2.67;;
8333;SDS011;4204;43.004;23.052;2023-03-02T13:27:02;4.40;;;3.00;;
8333;SDS011;4204;43.004;23.052;2023-03-02T13:29:31;5.03;;;3.20;;
8333;SDS011;4204;43.004;23.052;2023-03-02T13:32:12;4.50;;;3.17;;
8333;SDS011;4204;43.004;23.052;2023-03-02T13:34:47;5.93;;;3.10;;
8333;SDS011;4204;43.004;23.052;2023-03-02T13:43:18;4.07;;;2.63;;
8333;SDS011;4204;43.004;23.052;2023-03-02T13:45:51;3.80;;;2.57;;
8333;SDS011;4204;43.004;23.052;2023-03-02T13:48:20;4.53;;;3.00;;
8333;SDS011;4204;43.004;23.052;2023-03-02T13:50:54;5.03;;;2.90;;
8333;SDS011;4204;43.004;23.052;2023-03-02T13:53:24;6.93;;;4.20;;
8333;SDS011;4204;43.004;23.052;2023-03-02T13:55:55;4.90;;;3.30;;
8333;SDS011;4204;43.004;23.052;2023-03-02T13:58:25;4.37;;;2.60;;
8333;SDS011;4204;43.004;23.052;2023-03-02T14:00:54;4.73;;;2.20;;
8333;SDS011;4204;43.004;23.052;2023-03-02T14:03:24;2.60;;;2.20;;
8333;SDS011;4204;43.004;23.052;2023-03-02T14:05:57;2.93;;;2.00;;
8333;SDS011;4204;43.004;23.052;2023-03-02T14:08:26;4.07;;;2.63;;
8333;SDS011;4204;43.004;23.052;2023-03-02T14:10:54;2.83;;;2.13;;
8333;SDS011;4204;43.004;23.052;2023-03-02T14:13:25;4.07;;;2.37;;
8333;SDS011;4204;43.004;23.052;2023-03-02T14:15:56;3.80;;;2.33;;
8333;SDS011;4204;43.004;23.052;2023-03-02T14:18:26;4.93;;;2.13;;
8333;SDS011;4204;43.004;23.052;2023-03-02T14:20:58;3.50;;;2.23;;
8333;SDS011;4204;43.004;23.052;2023-03-02T14:23:26;3.07;;;2.40;;
8333;SDS011;4204;43.004;23.052;2023-03-02T14:25:54;4.73;;;2.60;;
8333;SDS011;4204;43.004;23.052;2023-03-02T14:28:24;3.00;;;2.10;;
8333;SDS011;4204;43.004;23.052;2023-03-02T14:30:54;2.77;;;1.83;;
8333;SDS011;4204;43.004;23.052;2023-03-02T14:33:24;2.80;;;1.70;;
8333;SDS011;4204;43.004;23.052;2023-03-02T14:35:53;3.47;;;2.50;;
8333;SDS011;4204;43.004;23.052;2023-03-02T14:38:24;2.67;;;2.00;;
8333;SDS011;4204;43.004;23.052;2023-03-02T14:40:53;4.03;;;2.20;;
8333;SDS011;4204;43.004;23.052;2023-03-02T14:43:21;4.20;;;2.00;;
8333;SDS011;4204;43.004;23.052;2023-03-02T14:45:50;2.40;;;1.90;;
8333;SDS011;4204;43.004;23.052;2023-03-02T14:48:18;3.70;;;2.10;;
8333;SDS011;4204;43.004;23.052;2023-03-02T14:50:46;1.80;;;1.57;;
8333;SDS011;4204;43.004;23.052;2023-03-02T14:53:16;4.33;;;1.97;;
8333;SDS011;4204;43.004;23.052;2023-03-02T14:55:50;2.20;;;1.60;;
8333;SDS011;4204;43.004;23.052;2023-03-02T14:58:18;1.70;;;1.30;;
8333;SDS011;4204;43.004;23.052;2023-03-02T15:00:52;3.00;;;1.90;;
8333;SDS011;4204;43.004;23.052;2023-03-02T15:03:20;3.73;;;2.30;;
8333;SDS011;4204;43.004;23.052;2023-03-02T15:05:50;4.40;;;2.50;;
8333;SDS011;4204;43.004;23.052;2023-03-02T15:08:19;2.90;;;1.93;;
8333;SDS011;4204;43.004;23.052;2023-03-02T15:10:48;4.37;;;2.17;;
8333;SDS011;4204;43.004;23.052;2023-03-02T15:13:17;4.53;;;2.27;;
8333;SDS011;4204;43.004;23.052;2023-03-02T15:15:45;3.13;;;2.10;;
8333;SDS011;4204;43.004;23.052;2023-03-02T15:18:13;4.20;;;2.27;;
8333;SDS011;4204;43.004;23.052;2023-03-02T15:20:44;2.40;;;1.60;;
8333;SDS011;4204;43.004;23.052;2023-03-02T15:23:12;1.93;;;1.50;;
8333;SDS011;4204;43.004;23.052;2023-03-02T15:25:39;2.27;;;1.80;;
8333;SDS011;4204;43.004;23.052;2023-03-02T15:28:09;2.50;;;1.70;;
8333;SDS011;4204;43.004;23.052;2023-03-02T15:30:37;2.77;;;1.97;;
8333;SDS011;4204;43.004;23.052;2023-03-02T15:33:06;7.87;;;3.90;;